createdAt,value
2019-05-12T00:01:39.888Z,61.78
2019-05-12T00:06:41.556Z,61.71
2019-05-12T00:11:43.327Z,61.44
2019-05-12T00:16:45.326Z,61.84
2019-05-12T00:21:48.287Z,62.22
2019-05-12T00:26:51.879Z,62.23
2019-05-12T00:31:53.370Z,62.09
2019-05-12T00:36:54.980Z,62.14
2019-05-12T00:41:58.581Z,62.00
2019-05-12T00:46:59.903Z,61.97
2019-05-12T00:52:01.574Z,62.81
2019-05-12T00:57:03.047Z,62.31
2019-05-12T01:02:04.820Z,61.68
2019-05-12T01:07:08.533Z,61.31
2019-05-12T01:12:09.870Z,60.97
2019-05-12T01:17:11.345Z,61.54
2019-05-12T01:22:12.817Z,62.26
2019-05-12T01:27:14.306Z,62.56
2019-05-12T01:32:38.077Z,62.91
2019-05-12T01:37:39.275Z,63.27
2019-05-12T01:42:40.856Z,63.87
2019-05-12T01:47:42.326Z,63.85
2019-05-12T01:52:45.114Z,64.15
2019-05-12T01:57:48.539Z,64.55
2019-05-12T02:02:50.075Z,65.23
2019-05-12T02:07:53.537Z,65.94
2019-05-12T02:12:55.203Z,66.98
2019-05-12T02:17:58.938Z,67.33
2019-05-12T02:23:00.171Z,68.00
2019-05-12T02:28:01.854Z,68.95
2019-05-12T02:33:05.244Z,67.65
2019-05-12T02:38:06.860Z,67.44
2019-05-12T02:43:08.485Z,70.55
2019-05-12T02:48:10.075Z,70.64
2019-05-12T02:53:14.564Z,70.44
2019-05-12T02:58:17.770Z,70.07
2019-05-12T03:03:20.549Z,69.92
2019-05-12T03:08:25.515Z,69.95
2019-05-12T03:13:26.217Z,69.87
2019-05-12T03:18:27.822Z,70.16
2019-05-12T03:23:29.280Z,70.54
2019-05-12T03:28:30.751Z,70.80
2019-05-12T03:33:36.120Z,70.47
2019-05-12T03:38:36.224Z,70.95
2019-05-12T03:43:38.033Z,71.53
2019-05-12T03:48:39.511Z,71.91
2019-05-12T03:53:40.984Z,71.85
2019-05-12T03:58:45.342Z,71.80
2019-05-12T04:03:45.958Z,72.65
2019-05-12T04:08:47.555Z,73.50
2019-05-12T04:13:49.168Z,74.71
2019-05-12T04:18:50.650Z,74.04
2019-05-12T04:23:54.848Z,74.71
2019-05-12T04:28:55.511Z,75.44
2019-05-12T04:33:56.988Z,75.23
2019-05-12T04:38:58.456Z,76.07
2019-05-12T04:43:59.997Z,75.19
2019-05-12T04:49:04.974Z,75.70
2019-05-12T04:54:06.076Z,75.93
2019-05-12T04:59:08.005Z,75.77
2019-05-12T05:04:09.530Z,77.04
2019-05-12T05:09:14.208Z,77.57
2019-05-12T05:14:14.638Z,77.63
2019-05-12T05:19:16.239Z,77.53
2019-05-12T05:24:17.735Z,76.90
2019-05-12T05:29:19.363Z,77.29
2019-05-12T05:34:23.456Z,76.93
2019-05-12T05:39:24.595Z,76.18
2019-05-12T05:44:29.210Z,74.36
2019-05-12T05:49:29.618Z,73.74
2019-05-12T05:54:33.672Z,73.84
2019-05-12T05:59:36.859Z,73.95
2019-05-12T06:04:39.250Z,76.08
2019-05-12T06:09:43.281Z,76.09
2019-05-12T06:14:46.716Z,76.17
2019-05-12T06:19:48.413Z,77.45
2019-05-12T06:24:56.918Z,77.19
2019-05-12T06:30:00.863Z,78.81
2019-05-12T06:35:01.396Z,77.30
2019-05-12T06:40:00.649Z,77.34
2019-05-12T06:45:03.991Z,78.31
2019-05-12T06:50:06.417Z,76.76
2019-05-12T06:55:07.994Z,78.08
2019-05-12T07:00:10.795Z,78.84
2019-05-12T07:05:14.423Z,78.93
2019-05-12T07:10:35.580Z,78.17
2019-05-12T07:15:19.819Z,78.08
2019-05-12T07:20:23.895Z,80.58
2019-05-12T07:25:31.142Z,80.31
2019-05-12T07:30:32.653Z,81.25
2019-05-12T07:35:34.095Z,80.06
2019-05-12T07:40:37.910Z,80.52
2019-05-12T07:45:44.166Z,79.50
2019-05-12T07:50:50.167Z,80.75
2019-05-12T07:55:49.665Z,81.52
2019-05-12T08:00:53.953Z,83.81
2019-05-12T08:05:59.779Z,84.41
2019-05-12T08:10:58.120Z,84.78
2019-05-12T08:15:59.644Z,84.46
2019-05-12T08:21:03.575Z,85.91
2019-05-12T08:26:12.073Z,85.02
2019-05-12T08:31:08.189Z,85.77
2019-05-12T08:36:11.725Z,85.89
2019-05-12T08:41:14.640Z,86.02
2019-05-12T08:46:16.458Z,87.37
2019-05-12T08:51:20.082Z,84.74
2019-05-12T08:56:24.029Z,84.58
2019-05-12T09:01:29.112Z,85.54
2019-05-12T09:06:30.400Z,84.54
2019-05-12T09:11:33.582Z,81.08
2019-05-12T09:16:35.260Z,79.79
2019-05-12T09:21:37.200Z,79.22
2019-05-12T09:26:38.894Z,81.04
2019-05-12T09:31:40.378Z,78.81
2019-05-12T09:36:43.780Z,78.75
2019-05-12T09:41:50.654Z,76.35
2019-05-12T09:46:48.754Z,78.46
2019-05-12T09:51:50.247Z,78.77
2019-05-12T09:56:57.810Z,77.60
2019-05-12T10:01:55.230Z,78.28
2019-05-12T10:06:56.839Z,80.23
2019-05-12T10:12:00.554Z,79.64
2019-05-12T10:17:03.624Z,80.89
2019-05-12T10:22:05.512Z,82.23
2019-05-12T10:27:08.176Z,82.04
2019-05-12T10:32:10.484Z,82.81
2019-05-12T10:37:13.318Z,83.53
2019-05-12T10:42:15.082Z,83.73
2019-05-12T10:47:16.560Z,85.21
2019-05-12T10:52:18.038Z,85.95
2019-05-12T10:57:19.652Z,88.15
2019-05-12T11:02:26.459Z,89.52
2019-05-12T11:07:28.109Z,90.35
2019-05-12T11:12:29.204Z,91.53
2019-05-12T11:17:49.897Z,91.01
2019-05-12T11:22:51.437Z,90.96
2019-05-12T11:27:54.888Z,91.25
2019-05-12T11:32:59.483Z,91.22
2019-05-12T11:38:00.917Z,91.40
2019-05-12T11:43:04.085Z,92.20
2019-05-12T11:48:10.111Z,90.66
2019-05-12T11:53:09.615Z,90.88
2019-05-12T11:58:11.765Z,90.63
2019-05-12T12:03:17.989Z,90.38
2019-05-12T12:08:16.824Z,89.67
2019-05-12T12:13:24.448Z,90.30
2019-05-12T12:18:23.533Z,90.77
2019-05-12T12:23:25.294Z,90.35
2019-05-12T12:28:26.767Z,90.43
2019-05-12T12:33:30.934Z,89.96
2019-05-12T12:38:33.467Z,89.67
2019-05-12T12:43:35.018Z,90.74
2019-05-12T12:48:36.523Z,91.44
2019-05-12T12:53:38.004Z,90.75
2019-05-12T12:58:39.490Z,90.44
2019-05-12T13:03:43.409Z,91.65
2019-05-12T13:08:44.792Z,92.28
2019-05-12T13:13:46.304Z,91.41
2019-05-12T13:18:47.777Z,91.65
2019-05-12T13:23:51.091Z,91.55
2019-05-12T13:28:54.883Z,91.90
2019-05-12T13:33:56.597Z,92.06
2019-05-12T13:38:59.314Z,92.30
2019-05-12T13:44:00.838Z,91.93
2019-05-12T13:49:03.183Z,91.67
2019-05-12T13:54:04.879Z,92.17
2019-05-12T13:59:06.354Z,91.62
2019-05-12T14:04:07.872Z,92.26
2019-05-12T14:09:09.845Z,91.45
2019-05-12T14:14:15.190Z,92.24
2019-05-12T14:19:14.842Z,92.45
2019-05-12T14:24:16.426Z,92.41
2019-05-12T14:29:20.486Z,92.91
2019-05-12T14:34:23.501Z,92.48
2019-05-12T14:39:24.661Z,92.99
2019-05-12T14:44:26.135Z,93.32
2019-05-12T14:49:30.509Z,93.68
2019-05-12T14:54:31.647Z,93.49
2019-05-12T14:59:36.698Z,94.01
2019-05-12T15:04:36.735Z,94.25
2019-05-12T15:09:38.413Z,93.67
2019-05-12T15:14:39.994Z,94.12
2019-05-12T15:19:43.891Z,94.33
2019-05-12T15:24:49.210Z,94.18
2019-05-12T15:29:49.998Z,94.81
2019-05-12T15:34:52.099Z,94.59
2019-05-12T15:39:53.592Z,94.30
2019-05-12T15:44:55.066Z,94.61
2019-05-12T15:49:57.650Z,94.22
2019-05-12T15:54:59.173Z,94.88
2019-05-12T16:00:00.770Z,95.11
2019-05-12T16:05:06.751Z,94.90
2019-05-12T16:10:09.374Z,95.43
2019-05-12T16:15:17.074Z,95.40
2019-05-12T16:20:15.619Z,95.28
2019-05-12T16:25:20.563Z,95.58
2019-05-12T16:30:25.998Z,95.80
2019-05-12T16:35:28.481Z,95.47
2019-05-12T16:40:28.961Z,95.50
2019-05-12T16:45:30.550Z,96.05
2019-05-12T16:50:34.449Z,96.14
2019-05-12T16:55:44.910Z,95.84
2019-05-12T17:00:44.030Z,95.75
2019-05-12T17:05:42.814Z,96.17
2019-05-12T17:10:49.748Z,95.81
2019-05-12T17:15:48.752Z,96.14
2019-05-12T17:20:51.606Z,95.98
2019-05-12T17:25:53.200Z,95.98
2019-05-12T17:30:54.683Z,96.26
2019-05-12T17:35:56.193Z,96.13
2019-05-12T17:41:00.676Z,96.45
2019-05-12T17:46:04.142Z,96.12
2019-05-12T17:51:04.790Z,96.16
2019-05-12T17:56:06.367Z,96.28
2019-05-12T18:01:08.067Z,96.42
2019-05-12T18:06:09.646Z,96.33
2019-05-12T18:11:11.839Z,96.51
2019-05-12T18:16:20.399Z,96.51
2019-05-12T18:21:21.677Z,96.62
2019-05-12T18:26:24.483Z,96.25
2019-05-12T18:31:25.607Z,96.78
2019-05-12T18:36:27.075Z,96.72
2019-05-12T18:41:28.554Z,96.93
2019-05-12T18:46:30.033Z,96.38
2019-05-12T18:51:34.131Z,95.63
2019-05-12T18:56:35.209Z,96.09
2019-05-12T19:01:36.883Z,95.84
2019-05-12T19:06:38.371Z,95.57
2019-05-12T19:11:42.197Z,95.86
2019-05-12T19:16:43.784Z,96.07
2019-05-12T19:21:46.884Z,96.27
2019-05-12T19:26:48.716Z,95.76
2019-05-12T19:31:52.497Z,95.57
2019-05-12T19:36:53.982Z,96.03
2019-05-12T19:41:55.570Z,95.58
2019-05-12T19:46:57.096Z,95.87
2019-05-12T19:51:58.917Z,95.72
2019-05-12T19:57:00.433Z,96.27
2019-05-12T20:02:04.073Z,96.22
2019-05-12T20:07:05.609Z,95.80
2019-05-12T20:12:13.170Z,96.13
2019-05-12T20:17:10.707Z,95.66
2019-05-12T20:22:13.820Z,95.51
2019-05-12T20:27:21.643Z,95.53
2019-05-12T20:32:20.022Z,95.59
2019-05-12T20:37:21.509Z,95.06
2019-05-12T20:42:23.622Z,95.15
2019-05-12T20:47:25.388Z,95.25
2019-05-12T20:52:27.519Z,94.87
2019-05-12T20:57:29.041Z,95.22
2019-05-12T21:02:30.527Z,95.28
2019-05-12T21:07:33.831Z,95.42
2019-05-12T21:12:39.973Z,95.50
2019-05-12T21:17:43.469Z,95.66
2019-05-12T21:22:43.750Z,95.30
2019-05-12T21:27:47.763Z,95.08
2019-05-12T21:32:56.463Z,95.30
2019-05-12T21:37:53.783Z,95.33
2019-05-12T21:42:55.445Z,95.25
2019-05-12T21:47:57.227Z,95.01
2019-05-12T21:52:59.988Z,95.18
2019-05-12T21:58:10.622Z,95.45
2019-05-12T22:03:08.091Z,95.03
2019-05-12T22:08:17.706Z,94.85
2019-05-12T22:13:17.946Z,95.24
2019-05-12T22:18:18.542Z,95.07
2019-05-12T22:23:20.323Z,95.56
2019-05-12T22:28:23.885Z,95.65
2019-05-12T22:33:25.218Z,95.37
2019-05-12T22:38:26.800Z,95.29
2019-05-12T22:43:31.453Z,95.94
2019-05-12T22:48:37.267Z,95.80
2019-05-12T22:53:35.092Z,95.88
2019-05-12T22:58:36.558Z,95.73
2019-05-12T23:03:45.337Z,94.71
2019-05-12T23:08:47.090Z,95.59
2019-05-12T23:13:44.986Z,95.68
2019-05-12T23:18:46.564Z,95.47
2019-05-12T23:23:49.850Z,95.12
2019-05-12T23:28:53.473Z,95.29
2019-05-12T23:33:54.866Z,94.80
2019-05-12T23:39:00.526Z,95.24
2019-05-12T23:43:59.724Z,95.32
2019-05-12T23:49:03.658Z,94.88
2019-05-12T23:54:04.590Z,94.84
2019-05-12T23:59:06.130Z,94.74
